Data for 02/22/2017

Time Sea-Level Adjusted Pressure Absolute Pressure Temperature Relative Humidity Dew Point   
(mb) (inHg) (mb) (inHg) (C) (F) (%) (C) (F)
00:05 1011 29.85 841 24.83 3.2 37.8 39 -9.4 15
00:10 1011 29.85 841 24.83 3.2 37.7 39 -9.7 14.6
00:15 1011 29.85 841 24.83 3.1 37.7 38 -9.8 14.4
00:20 1011 29.85 841 24.83 3.2 37.7 39 -9.5 14.9
00:25 1012 29.88 841 24.83 3.2 37.7 37 -10.3 13.5
00:30 1012 29.88 841 24.83 3.3 38 37 -10.2 13.7
00:35 1012 29.88 841 24.83 3.4 38 37 -10 14
00:40 1012 29.88 841 24.83 3.3 38 37 -9.9 14.1
00:45 1012 29.88 841 24.83 3.3 38 43 -8.1 17.5
00:50 1012 29.88 841 24.83 3.2 37.8 38 -9.8 14.4
00:55 1012 29.88 841 24.83 3.4 38.1 40 -8.8 16.1
01:00 1012 29.88 841 24.83 3.1 37.7 43 -8.2 17.2
01:05 1012 29.88 842 24.86 3 37.4 45 -7.9 17.7
01:10 1012 29.88 842 24.86 2.9 37.2 47 -7.3 18.8
01:15 1012 29.88 842 24.86 2.7 36.8 49 -7.1 19.3
01:20 1012 29.88 841 24.83 2.6 36.7 48 -7.4 18.7
01:25 1012 29.88 841 24.83 2.7 36.9 44 -8.3 17.1
01:30 1012 29.88 842 24.86 2.9 37.3 44 -8.3 17.1
01:35 1012 29.88 842 24.86 2.9 37.2 46 -7.6 18.3
01:40 1012 29.88 842 24.86 2.7 36.9 48 -7.3 18.8
01:45 1013 29.91 842 24.86 2.5 36.5 50 -7 19.4
01:50 1013 29.91 842 24.86 2.4 36.3 50 -7.1 19.2
01:55 1013 29.91 842 24.86 2.3 36.2 50 -7 19.4
02:00 1013 29.91 842 24.86 2.3 36.2 50 -7 19.5
02:05 1013 29.91 842 24.86 2.4 36.2 50 -7.1 19.3
02:10 1013 29.91 842 24.86 2.4 36.3 50 -7 19.3
02:15 1013 29.91 842 24.86 2.3 36.2 50 -7 19.4
02:20 1013 29.91 842 24.86 2.3 36.2 51 -6.9 19.5
02:25 1013 29.91 842 24.86 2.3 36.1 51 -6.8 19.7
02:30 1013 29.91 842 24.86 2.2 36 51 -6.8 19.7
02:35 1013 29.91 842 24.86 2.2 36 51 -6.8 19.8
02:40 1013 29.91 842 24.86 2.2 35.9 52 -6.7 19.9
02:45 1013 29.91 842 24.86 2.1 35.9 52 -6.6 20.1
02:50 1013 29.91 842 24.86 1.9 35.4 61 -4.8 23.3
02:55 1013 29.91 842 24.86 1.3 34.3 66 -4.4 24
03:00 1013 29.91 842 24.86 0.9 33.7 67 -4.5 24
03:05 1013 29.91 842 24.86 0.9 33.5 67 -4.6 23.8
03:10 1013 29.91 842 24.86 0.8 33.4 68 -4.4 24.1
03:15 1013 29.91 842 24.86 0.5 33 70 -4.2 24.4
03:20 1013 29.91 842 24.86 0.4 32.7 72 -4.1 24.6
03:25 1013 29.91 842 24.86 0.3 32.5 76 -3.4 25.9
03:30 1013 29.91 842 24.86 -0 32 79 -3.3 26.1
03:35 1013 29.91 842 24.86 -0.2 31.6 79 -3.5 25.7
03:40 1013 29.91 842 24.86 -0.3 31.5 77 -3.9 24.9
03:45 1013 29.91 842 24.86 0 32 68 -5.2 22.7
03:50 1013 29.91 842 24.86 0.4 32.7 67 -4.9 23.1
03:55 1013 29.91 842 24.86 0.6 33.1 63 -5.7 21.8
04:00 1013 29.91 842 24.86 0.8 33.4 62 -5.6 21.8
04:05 1013 29.91 842 24.86 0.7 33.3 64 -5.3 22.5
04:10 1013 29.91 842 24.86 0.7 33.2 64 -5.4 22.3
04:15 1013 29.91 842 24.86 0.4 32.7 74 -3.8 25.2
04:20 1013 29.91 842 24.86 -0.2 31.7 75 -4 24.8
04:25 1013 29.91 842 24.86 -0.1 31.8 64 -6 21.2
04:30 1013 29.91 842 24.86 0.6 33 60 -6.3 20.6
04:35 1013 29.91 842 24.86 0.7 33.2 64 -5.3 22.5
04:40 1013 29.91 842 24.86 0.4 32.7 67 -5.1 22.8
04:45 1013 29.91 842 24.86 0.3 32.6 68 -5 23
04:50 1013 29.91 842 24.86 0.4 32.6 68 -5 23.1
04:55 1013 29.91 842 24.86 0.4 32.6 67 -5 23
05:00 1013 29.91 842 24.86 0.4 32.7 67 -5 23
05:05 1013 29.91 842 24.86 0.5 32.8 65 -5.3 22.5
05:10 1013 29.91 842 24.86 0.6 33 63 -5.6 21.9
05:15 1013 29.91 842 24.86 0.8 33.4 60 -6.2 20.8
05:20 1013 29.91 842 24.86 1 33.7 60 -6 21.2
05:25 1013 29.91 842 24.86 0.9 33.7 62 -5.5 22
05:30 1013 29.91 842 24.86 0.8 33.4 64 -5.4 22.3
05:35 1013 29.91 843 24.89 0.6 33.1 64 -5.3 22.4
05:40 1013 29.91 843 24.89 0.6 33.1 66 -5 23
05:45 1014 29.94 843 24.89 0.5 32.8 66 -5.2 22.7
05:50 1014 29.94 843 24.89 0.4 32.7 66 -5.2 22.6
05:55 1014 29.94 843 24.89 0.3 32.6 67 -5.2 22.7
06:00 1014 29.94 843 24.89 0.3 32.6 67 -5.1 22.9
06:05 1014 29.94 843 24.89 0.3 32.6 68 -5 23.1
06:10 1014 29.94 843 24.89 0.4 32.7 67 -5 23
06:15 1014 29.94 843 24.89 0.4 32.7 68 -4.9 23.2
06:20 1014 29.94 843 24.89 0.4 32.6 68 -4.8 23.3
06:25 1014 29.94 843 24.89 0.2 32.4 73 -4.1 24.6
06:30 1014 29.94 843 24.89 -0.3 31.5 79 -3.5 25.6
06:35 1014 29.94 843 24.89 -0.6 30.9 79 -3.8 25.2
06:40 1014 29.94 843 24.89 -0.6 31 75 -4.4 24.1
06:45 1014 29.94 843 24.89 -0.3 31.5 72 -4.7 23.6
06:50 1014 29.94 843 24.89 -0.1 31.8 72 -4.6 23.7
06:55 1014 29.94 843 24.89 -0.1 31.9 72 -4.5 23.9
07:00 1014 29.94 843 24.89 -0.1 31.8 72 -4.6 23.8
07:05 1014 29.94 843 24.89 -0.1 31.8 72 -4.5 23.9
07:10 1014 29.94 843 24.89 -0.1 31.8 73 -4.4 24.1
07:15 1014 29.94 843 24.89 -0.2 31.7 73 -4.4 24.1
07:20 1014 29.94 843 24.89 -0.2 31.7 74 -4.3 24.2
07:25 1014 29.94 843 24.89 -0.2 31.6 75 -4.2 24.5
07:30 1014 29.94 843 24.89 -0.3 31.5 75 -4.1 24.6
07:35 1014 29.94 843 24.89 -0.3 31.4 76 -4.1 24.6
07:40 1014 29.94 844 24.92 -0.4 31.3 76 -4.1 24.7
07:45 1014 29.94 844 24.92 -0.5 31.2 77 -4 24.9
07:50 1015 29.97 844 24.92 -0.5 31.1 78 -3.9 25
07:55 1015 29.97 844 24.92 -0.6 31 79 -3.8 25.2
08:00 1015 29.97 844 24.92 -0.5 31.1 79 -3.7 25.4
08:05 1015 29.97 844 24.92 -0.5 31.1 79 -3.6 25.4
08:10 1015 29.97 844 24.92 -0.5 31.1 80 -3.6 25.6
08:15 1015 29.97 844 24.92 -0.5 31.1 80 -3.5 25.6
08:20 1015 29.97 844 24.92 -0.5 31 80 -3.6 25.5
08:25 1015 29.97 844 24.92 -0.6 31 80 -3.5 25.6
08:30 1015 29.97 844 24.92 -0.6 31 80 -3.6 25.4
08:35 1015 29.97 844 24.92 -0.6 30.9 80 -3.7 25.4
08:40 1015 29.97 844 24.92 -0.6 30.9 82 -3.3 26
08:45 1015 29.97 844 24.92 -0.5 31.1 81 -3.3 26
08:50 1015 29.97 844 24.92 -0.6 30.9 83 -3.1 26.4
08:55 1015 29.97 844 24.92 -0.7 30.7 84 -3.1 26.3
09:00 1015 29.97 844 24.92 -0.6 30.9 84 -3 26.7
09:05 1015 29.97 844 24.92 -0.8 30.6 85 -3 26.6
09:10 1015 29.97 844 24.92 -0.8 30.5 85 -3 26.6
09:15 1015 29.97 844 24.92 -0.7 30.7 84 -3 26.6
09:20 1015 29.97 844 24.92 -0.5 31 84 -2.9 26.9
09:25 1015 29.97 844 24.92 -0.3 31.4 82 -3 26.6
09:30 1015 29.97 844 24.92 -0.4 31.3 84 -2.8 26.9
09:35 1015 29.97 844 24.92 -0.4 31.3 84 -2.8 27
09:40 1015 29.97 844 24.92 -0.5 31.1 84 -3 26.7
09:45 1015 29.97 844 24.92 -0.7 30.7 84 -3.1 26.5
09:50 1015 29.97 844 24.92 -0.6 31 85 -2.7 27.1
09:55 1015 29.97 844 24.92 -0.5 31 86 -2.6 27.3
10:00 1015 29.97 844 24.92 -0.6 31 86 -2.7 27.2
10:05 1015 29.97 844 24.92 -0.5 31.1 85 -2.7 27.1
10:10 1015 29.97 844 24.92 -0.5 31.1 85 -2.7 27.1
10:15 1015 29.97 844 24.92 -0.3 31.4 84 -2.8 27
10:20 1015 29.97 844 24.92 -0.1 31.8 83 -2.6 27.3
10:25 1015 29.97 844 24.92 0 32 81 -2.9 26.8
10:30 1015 29.97 844 24.92 0.2 32.3 81 -2.7 27.1
10:35 1015 29.97 844 24.92 0.3 32.5 81 -2.6 27.4
10:40 1015 29.97 844 24.92 0.4 32.6 80 -2.7 27.2
10:45 1015 29.97 844 24.92 0.4 32.7 81 -2.4 27.6
10:50 1015 29.97 844 24.92 0.5 33 80 -2.5 27.5
10:55 1015 29.97 844 24.92 0.6 33.1 80 -2.5 27.6
11:00 1015 29.97 844 24.92 0.7 33.3 78 -2.7 27.2
11:05 1015 29.97 844 24.92 0.8 33.4 78 -2.6 27.3
11:10 1015 29.97 844 24.92 0.7 33.3 78 -2.8 27
11:15 1015 29.97 844 24.92 0.5 32.8 79 -2.8 27
11:20 1015 29.97 844 24.92 0.6 33.1 78 -2.7 27.1
11:25 1015 29.97 844 24.92 0.3 32.6 82 -2.4 27.7
11:30 1015 29.97 844 24.92 -0.1 31.8 85 -2.3 27.8
11:35 1015 29.97 844 24.92 -0.4 31.3 85 -2.6 27.3
11:40 1015 29.97 844 24.92 -0.6 30.9 84 -3.1 26.5
11:45 1015 29.97 844 24.92 -0.8 30.6 84 -3.1 26.4
11:50 1015 29.97 844 24.92 -0.6 31 74 -4.6 23.7
11:55 1015 29.97 844 24.92 -0.2 31.7 66 -5.7 21.7
12:00 1015 29.97 844 24.92 0.2 32.3 67 -5.2 22.6
12:05 1015 29.97 844 24.92 0.6 33.1 66 -5.1 22.8
12:10 1015 29.97 844 24.92 0.9 33.6 60 -6.1 21
12:15 1014 29.94 844 24.92 1.7 35 59 -5.6 21.9
12:20 1014 29.94 844 24.92 2.5 36.4 56 -5.4 22.2
12:25 1014 29.94 843 24.89 2.9 37.1 55 -5.4 22.3
12:30 1014 29.94 843 24.89 2.1 35.8 60 -4.8 23.3
12:35 1014 29.94 843 24.89 1.5 34.7 64 -4.7 23.6
12:40 1014 29.94 843 24.89 1.8 35.2 57 -5.8 21.6
12:45 1014 29.94 843 24.89 1.9 35.4 59 -5.3 22.4
12:50 1014 29.94 843 24.89 1.8 35.3 55 -6.4 20.5
12:55 1014 29.94 843 24.89 2 35.6 55 -6.1 21
13:00 1014 29.94 843 24.89 2.3 36.1 51 -6.8 19.8
13:05 1014 29.94 843 24.89 2.7 36.9 50 -6.6 20.1
13:10 1013 29.91 843 24.89 3.3 37.9 50 -6.2 20.9
13:15 1013 29.91 843 24.89 4.1 39.4 43 -7.2 19
13:20 1013 29.91 843 24.89 3.9 39.1 42 -7.8 18
13:25 1013 29.91 843 24.89 3.9 39 44 -7.4 18.7
13:30 1013 29.91 843 24.89 3.7 38.6 43 -7.9 17.8
13:35 1013 29.91 843 24.89 3.8 38.8 44 -7.5 18.5
13:40 1013 29.91 843 24.89 3.6 38.4 45 -7.2 19.1
13:45 1013 29.91 843 24.89 3.7 38.7 44 -7.5 18.5
13:50 1013 29.91 843 24.89 4.2 39.6 43 -7.2 19
13:55 1013 29.91 842 24.86 4.4 39.9 44 -6.7 19.9
14:00 1013 29.91 842 24.86 3.9 39 46 -6.6 20
14:05 1013 29.91 843 24.89 3.7 38.7 47 -6.7 20
14:10 1013 29.91 842 24.86 3.6 38.5 49 -6.2 20.8
14:15 1013 29.91 842 24.86 3.4 38.2 51 -5.8 21.5
14:20 1013 29.91 842 24.86 2.3 36.1 62 -4.3 24.3
14:25 1013 29.91 842 24.86 1.1 33.9 64 -5 23
14:30 1013 29.91 842 24.86 1.4 34.5 60 -5.6 22
14:35 1013 29.91 842 24.86 1.2 34.1 63 -5.2 22.7
14:40 1013 29.91 842 24.86 1.4 34.5 59 -5.8 21.5
14:45 1013 29.91 842 24.86 1.7 35.1 59 -5.5 22.1
14:50 1013 29.91 842 24.86 1.5 34.7 58 -5.8 21.5
14:55 1013 29.91 842 24.86 1.3 34.3 61 -5.4 22.3
15:00 1013 29.91 842 24.86 1.6 34.8 59 -5.6 21.9
15:05 1013 29.91 842 24.86 1.4 34.6 61 -5.3 22.5
15:10 1013 29.91 842 24.86 1.6 34.9 60 -5.3 22.5
15:15 1013 29.91 842 24.86 1.8 35.2 59 -5.5 22.1
15:20 1013 29.91 842 24.86 2.1 35.8 57 -5.5 22.2
15:25 1013 29.91 843 24.89 2.2 35.9 57 -5.4 22.2
15:30 1013 29.91 843 24.89 1.5 34.7 73 -2.9 26.8
15:35 1013 29.91 843 24.89 0.4 32.8 75 -3.4 25.9
15:40 1013 29.91 843 24.89 0.2 32.4 78 -3.2 26.3
15:45 1013 29.91 842 24.86 0.1 32.1 79 -3.1 26.4
15:50 1013 29.91 842 24.86 -0.1 31.8 80 -3.2 26.2
15:55 1013 29.91 842 24.86 -0.3 31.5 80 -3.2 26.2
16:00 1013 29.91 842 24.86 -0.4 31.2 80 -3.5 25.7
16:05 1013 29.91 842 24.86 -0.4 31.3 80 -3.5 25.8
16:10 1013 29.91 842 24.86 -0.3 31.4 80 -3.4 25.9
16:15 1013 29.91 842 24.86 -0.3 31.4 78 -3.7 25.4
16:20 1013 29.91 842 24.86 -0.4 31.3 78 -3.8 25.2
16:25 1013 29.91 842 24.86 -0.3 31.5 77 -3.8 25.2
16:30 1013 29.91 842 24.86 -0.1 31.8 76 -3.8 25.2
16:35 1013 29.91 842 24.86 -0.2 31.7 78 -3.5 25.7
16:40 1013 29.91 842 24.86 -0.2 31.6 78 -3.5 25.7
16:45 1013 29.91 842 24.86 -0.1 31.8 74 -4.2 24.4
16:50 1013 29.91 842 24.86 -0.1 31.8 73 -4.3 24.3
16:55 1013 29.91 842 24.86 -0 32 73 -4.4 24.2
17:00 1013 29.91 842 24.86 -0 32 73 -4.3 24.2
17:05 1013 29.91 842 24.86 0.1 32.1 72 -4.4 24
17:10 1013 29.91 842 24.86 0.1 32.2 73 -4.2 24.5
17:15 1013 29.91 842 24.86 0.3 32.5 71 -4.3 24.2
17:20 1013 29.91 842 24.86 0.2 32.4 72 -4.2 24.4
17:25 1013 29.91 842 24.86 0.1 32.2 72 -4.3 24.3
17:30 1013 29.91 842 24.86 0.1 32.1 72 -4.4 24.1
17:35 1013 29.91 842 24.86 -0 32 72 -4.4 24.1
17:40 1013 29.91 842 24.86 -0.1 31.8 71 -4.7 23.5
17:45 1013 29.91 842 24.86 -0.1 31.8 69 -5.1 22.8
17:50 1013 29.91 842 24.86 0 32.1 68 -5.3 22.5
17:55 1013 29.91 842 24.86 0 32.1 68 -5.2 22.6
18:00 1013 29.91 842 24.86 -0 31.9 68 -5.2 22.7
18:05 1013 29.91 842 24.86 -0.2 31.7 69 -5.3 22.5
18:10 1013 29.91 842 24.86 -0.3 31.5 70 -5.1 22.9
18:15 1013 29.91 842 24.86 -0.4 31.2 71 -5 22.9
18:20 1013 29.91 842 24.86 -0.5 31.1 71 -5.2 22.7
18:25 1013 29.91 842 24.86 -0.7 30.7 71 -5.4 22.3
18:30 1013 29.91 842 24.86 -0.8 30.5 72 -5.4 22.4
18:35 1013 29.91 842 24.86 -0.8 30.5 71 -5.4 22.3
18:40 1013 29.91 842 24.86 -0.8 30.6 72 -5.3 22.5
18:45 1013 29.91 842 24.86 -0.9 30.3 72 -5.3 22.4
18:50 1013 29.91 842 24.86 -1.1 30.1 73 -5.3 22.5
18:55 1013 29.91 842 24.86 -1.2 29.8 75 -5.1 22.8
19:00 1013 29.91 842 24.86 -1.4 29.5 76 -5.2 22.7
19:05 1013 29.91 842 24.86 -1.3 29.6 77 -4.9 23.2
19:10 1013 29.91 842 24.86 -1.2 29.9 76 -4.9 23.2
19:15 1013 29.91 842 24.86 -1.1 30 76 -4.8 23.3
19:20 1013 29.91 842 24.86 -1.2 29.9 76 -4.8 23.3
19:25 1013 29.91 842 24.86 -1.2 29.9 76 -4.8 23.3
19:30 1013 29.91 842 24.86 -1.2 29.9 77 -4.8 23.4
19:35 1013 29.91 842 24.86 -1.3 29.7 77 -4.8 23.4
19:40 1013 29.91 842 24.86 -1.3 29.6 78 -4.8 23.4
19:45 1013 29.91 842 24.86 -1.4 29.5 78 -4.7 23.5
19:50 1013 29.91 842 24.86 -1.4 29.4 78 -4.7 23.5
19:55 1013 29.91 842 24.86 -1.5 29.2 77 -5 22.9
20:00 1013 29.91 842 24.86 -1.7 28.9 74 -5.8 21.6
20:05 1013 29.91 842 24.86 -1.9 28.6 76 -5.6 21.9
20:10 1013 29.91 842 24.86 -2.1 28.3 77 -5.6 21.8
20:15 1013 29.91 842 24.86 -2 28.3 75 -5.9 21.4
20:20 1013 29.91 842 24.86 -2.1 28.3 76 -5.7 21.8
20:25 1013 29.91 842 24.86 -2.1 28.2 77 -5.6 21.9
20:30 1013 29.91 842 24.86 -2.1 28.3 77 -5.6 22
20:35 1013 29.91 842 24.86 -2.2 28 79 -5.5 22.1
20:40 1013 29.91 842 24.86 -2.3 27.9 80 -5.4 22.3
20:45 1013 29.91 842 24.86 -2.1 28.1 80 -5.2 22.7
20:50 1013 29.91 842 24.86 -2.1 28.3 80 -5 23
20:55 1013 29.91 842 24.86 -2 28.5 81 -4.9 23.2
21:00 1013 29.91 842 24.86 -1.9 28.6 80 -4.8 23.3
21:05 1013 29.91 842 24.86 -1.9 28.6 80 -4.9 23.1
21:10 1013 29.91 842 24.86 -1.9 28.6 79 -5 23
21:15 1013 29.91 842 24.86 -1.9 28.6 79 -5.1 22.9
21:20 1013 29.91 842 24.86 -1.9 28.6 79 -5.1 22.8
21:25 1013 29.91 842 24.86 -2 28.5 78 -5.3 22.5
21:30 1013 29.91 842 24.86 -2 28.4 78 -5.4 22.3
21:35 1013 29.91 842 24.86 -1.9 28.5 78 -5.4 22.4
21:40 1013 29.91 842 24.86 -1.9 28.6 77 -5.4 22.4
21:45 1013 29.91 842 24.86 -1.9 28.6 77 -5.3 22.4
21:50 1013 29.91 842 24.86 -1.9 28.6 78 -5.3 22.4
21:55 1013 29.91 842 24.86 -1.8 28.7 77 -5.3 22.4
22:00 1013 29.91 842 24.86 -1.8 28.8 76 -5.4 22.3
22:05 1013 29.91 842 24.86 -1.8 28.8 76 -5.5 22.2
22:10 1013 29.91 842 24.86 -1.8 28.8 75 -5.6 21.9
22:15 1013 29.91 842 24.86 -1.8 28.8 74 -5.8 21.5
22:20 1013 29.91 842 24.86 -1.8 28.8 73 -5.9 21.3
22:25 1013 29.91 842 24.86 -1.8 28.7 73 -6 21.3
22:30 1013 29.91 842 24.86 -1.8 28.7 74 -5.9 21.3
22:35 1013 29.91 842 24.86 -1.9 28.7 73 -6 21.2
22:40 1013 29.91 842 24.86 -1.9 28.6 74 -5.9 21.4
22:45 1013 29.91 842 24.86 -1.9 28.5 75 -5.9 21.4
22:50 1012 29.88 842 24.86 -1.9 28.5 75 -5.8 21.6
22:55 1012 29.88 842 24.86 -1.9 28.5 75 -5.8 21.5
23:00 1012 29.88 841 24.83 -2 28.5 75 -5.8 21.6
23:05 1012 29.88 841 24.83 -2 28.4 76 -5.6 21.9
23:10 1012 29.88 841 24.83 -2 28.4 76 -5.6 21.8
23:15 1012 29.88 841 24.83 -2 28.4 77 -5.6 22
23:20 1012 29.88 841 24.83 -2.1 28.3 78 -5.5 22.1
23:25 1012 29.88 841 24.83 -2.1 28.2 78 -5.4 22.2
23:30 1012 29.88 841 24.83 -2.1 28.2 78 -5.5 22.2
23:35 1012 29.88 841 24.83 -2.1 28.2 78 -5.5 22.1
23:40 1012 29.88 841 24.83 -2.1 28.2 78 -5.5 22.1
23:45 1012 29.88 841 24.83 -2.1 28.2 78 -5.5 22.2
23:50 1012 29.88 841 24.83 -2.1 28.2 78 -5.4 22.2
23:55 1012 29.88 841 24.83 -2.2 28.1 78 -5.5 22.1
24:00 1012 29.88 841 24.83 -2.2 28 78 -5.5 22.1